createdAt,value
2022-07-29T00:00:45.480Z,1.00
2022-07-29T00:03:13.424Z,1.02
2022-07-29T00:05:41.976Z,1.20
2022-07-29T00:08:12.608Z,1.10
2022-07-29T00:10:40.951Z,0.90
2022-07-29T00:13:08.826Z,0.90
2022-07-29T00:15:36.735Z,1.00
2022-07-29T00:18:06.273Z,0.98
2022-07-29T00:20:34.248Z,1.10
2022-07-29T00:23:02.247Z,0.77
2022-07-29T00:25:30.055Z,1.15
2022-07-29T00:27:58.854Z,1.23
2022-07-29T00:30:26.685Z,0.98
2022-07-29T00:32:54.596Z,1.40
2022-07-29T00:35:41.293Z,0.90
2022-07-29T00:38:09.202Z,1.13
2022-07-29T00:40:37.035Z,0.85
2022-07-29T00:43:08.073Z,0.98
2022-07-29T00:45:36.539Z,1.25
2022-07-29T00:48:05.814Z,1.13
2022-07-29T00:50:35.784Z,1.08
2022-07-29T00:53:04.869Z,1.45
2022-07-29T00:55:32.847Z,1.15
2022-07-29T00:58:01.402Z,1.10
2022-07-29T01:00:30.815Z,1.13
2022-07-29T01:02:58.726Z,1.00
2022-07-29T01:05:50.088Z,1.10
2022-07-29T01:08:20.666Z,1.02
2022-07-29T01:10:49.022Z,1.30
2022-07-29T01:13:18.733Z,1.08
2022-07-29T01:15:50.008Z,1.30
2022-07-29T01:18:22.543Z,1.20
2022-07-29T01:21:18.447Z,1.08
2022-07-29T01:24:01.560Z,1.27
2022-07-29T01:26:44.927Z,1.10
2022-07-29T01:29:35.998Z,1.30
2022-07-29T01:32:27.343Z,1.60
2022-07-29T01:35:02.007Z,1.20
2022-07-29T01:37:34.268Z,1.20
2022-07-29T01:40:05.761Z,1.60
2022-07-29T01:42:37.882Z,1.27
2022-07-29T01:45:12.960Z,1.17
2022-07-29T01:47:46.264Z,1.17
2022-07-29T01:50:18.317Z,1.10
2022-07-29T01:52:51.936Z,1.10
2022-07-29T01:55:24.465Z,1.40
2022-07-29T01:57:52.349Z,1.27
2022-07-29T02:00:22.578Z,1.42
2022-07-29T02:02:52.787Z,1.42
2022-07-29T02:05:22.693Z,1.90
2022-07-29T02:07:51.953Z,1.20
2022-07-29T02:10:25.969Z,1.30
2022-07-29T02:12:57.686Z,1.35
2022-07-29T02:15:29.213Z,1.95
2022-07-29T02:18:01.924Z,1.40
2022-07-29T02:20:31.042Z,1.40
2022-07-29T02:23:01.762Z,1.33
2022-07-29T02:25:38.180Z,1.55
2022-07-29T02:28:08.311Z,1.90
2022-07-29T02:30:41.313Z,1.50
2022-07-29T02:33:10.804Z,1.20
2022-07-29T02:35:40.707Z,1.33
2022-07-29T02:38:28.280Z,1.13
2022-07-29T02:40:58.860Z,0.95
2022-07-29T02:43:27.867Z,1.10
2022-07-29T02:45:58.908Z,1.10
2022-07-29T02:48:36.647Z,1.20
2022-07-29T02:51:43.408Z,1.17
2022-07-29T02:54:08.871Z,1.33
2022-07-29T02:56:38.644Z,1.38
2022-07-29T02:59:11.186Z,1.30
2022-07-29T03:01:44.597Z,1.33
2022-07-29T03:04:15.421Z,1.02
2022-07-29T03:06:46.851Z,1.07
2022-07-29T03:09:16.000Z,1.35
2022-07-29T03:11:50.017Z,1.13
2022-07-29T03:14:21.238Z,1.30
2022-07-29T03:16:52.013Z,1.35
2022-07-29T03:19:21.217Z,1.50
2022-07-29T03:21:49.580Z,1.38
2022-07-29T03:24:28.265Z,1.17
2022-07-29T03:26:57.546Z,1.00
2022-07-29T03:29:25.942Z,1.10
2022-07-29T03:32:03.704Z,1.23
2022-07-29T03:34:35.322Z,1.00
2022-07-29T03:37:03.204Z,1.20
2022-07-29T03:39:35.280Z,1.23
2022-07-29T03:42:04.099Z,1.17
2022-07-29T03:44:34.737Z,1.05
2022-07-29T03:47:06.319Z,1.40
2022-07-29T03:49:37.940Z,1.30
2022-07-29T03:52:07.597Z,1.17
2022-07-29T03:54:35.738Z,1.10
2022-07-29T03:57:04.976Z,1.03
2022-07-29T03:59:34.907Z,1.10
2022-07-29T04:02:05.485Z,1.50
2022-07-29T04:04:35.515Z,1.30
2022-07-29T04:07:03.359Z,1.10
2022-07-29T04:09:32.083Z,1.10
2022-07-29T04:12:03.234Z,1.40
2022-07-29T04:14:32.826Z,1.13
2022-07-29T04:17:00.925Z,1.08
2022-07-29T04:19:30.405Z,1.30
2022-07-29T04:21:59.886Z,1.13
2022-07-29T04:24:28.031Z,1.47
2022-07-29T04:26:55.894Z,1.15
2022-07-29T04:29:23.709Z,1.10
2022-07-29T04:31:51.593Z,1.03
2022-07-29T04:34:20.015Z,1.20
2022-07-29T04:36:49.635Z,1.13
2022-07-29T04:39:22.798Z,1.13
2022-07-29T04:41:52.571Z,1.30
2022-07-29T04:44:22.787Z,1.20
2022-07-29T04:46:57.033Z,1.25
2022-07-29T04:49:25.043Z,1.77
2022-07-29T04:51:54.360Z,1.13
2022-07-29T04:54:22.277Z,1.40
2022-07-29T04:56:50.211Z,1.73
2022-07-29T04:59:18.064Z,1.27
2022-07-29T05:01:46.055Z,1.60
2022-07-29T05:04:14.190Z,2.00
2022-07-29T05:06:42.342Z,1.47
2022-07-29T05:09:11.595Z,1.40
2022-07-29T05:11:39.372Z,1.95
2022-07-29T05:14:07.223Z,1.77
2022-07-29T05:16:35.559Z,1.50
2022-07-29T05:19:03.497Z,1.80
2022-07-29T05:21:31.494Z,1.90
2022-07-29T05:23:59.406Z,1.42
2022-07-29T05:26:28.652Z,1.67
2022-07-29T05:28:57.173Z,1.73
2022-07-29T05:31:25.172Z,1.77
2022-07-29T05:33:53.021Z,1.67
2022-07-29T05:36:21.007Z,1.70
2022-07-29T05:38:49.206Z,1.40
2022-07-29T05:41:19.958Z,1.75
2022-07-29T05:43:49.502Z,1.83
2022-07-29T05:46:17.450Z,1.77
2022-07-29T05:48:45.581Z,1.60
2022-07-29T05:51:13.625Z,1.42
2022-07-29T05:53:41.485Z,1.60
2022-07-29T05:56:09.598Z,1.30
2022-07-29T05:58:37.788Z,1.80
2022-07-29T06:01:07.129Z,1.65
2022-07-29T06:03:35.678Z,1.92
2022-07-29T06:06:03.588Z,1.80
2022-07-29T06:08:31.507Z,1.60
2022-07-29T06:10:59.352Z,1.55
2022-07-29T06:13:27.355Z,2.17
2022-07-29T06:15:55.329Z,1.70
2022-07-29T06:18:24.984Z,1.90
2022-07-29T06:20:52.937Z,2.10
2022-07-29T06:23:21.615Z,2.03
2022-07-29T06:25:49.519Z,1.93
2022-07-29T06:28:17.417Z,1.70
2022-07-29T06:30:45.297Z,1.90
2022-07-29T06:33:18.865Z,1.70
2022-07-29T06:35:53.399Z,1.77
2022-07-29T06:38:31.231Z,1.87
2022-07-29T06:41:03.280Z,1.65
2022-07-29T06:43:34.866Z,1.60
2022-07-29T06:46:04.095Z,1.40
2022-07-29T06:48:32.779Z,1.77
2022-07-29T06:51:02.748Z,1.60
2022-07-29T06:53:31.405Z,1.47
2022-07-29T06:56:00.261Z,1.20
2022-07-29T06:58:28.860Z,1.83
2022-07-29T07:00:57.020Z,1.60
2022-07-29T07:03:25.007Z,1.52
2022-07-29T07:05:54.732Z,1.80
2022-07-29T07:08:24.855Z,1.58
2022-07-29T07:10:52.907Z,1.65
2022-07-29T07:13:20.949Z,1.77
2022-07-29T07:15:49.476Z,1.67
2022-07-29T07:18:18.181Z,1.48
2022-07-29T07:20:46.691Z,1.65
2022-07-29T07:23:14.542Z,1.70
2022-07-29T07:25:45.456Z,1.40
2022-07-29T07:28:13.359Z,1.50
2022-07-29T07:30:41.910Z,1.65
2022-07-29T07:33:11.138Z,1.42
2022-07-29T07:35:39.076Z,1.52
2022-07-29T07:38:08.624Z,1.52
2022-07-29T07:40:37.135Z,1.95
2022-07-29T07:43:06.558Z,1.35
2022-07-29T07:45:34.803Z,1.40
2022-07-29T07:48:02.816Z,1.52
2022-07-29T07:50:30.778Z,1.63
2022-07-29T07:52:59.770Z,1.80
2022-07-29T07:55:28.411Z,1.77
2022-07-29T07:57:57.074Z,1.33
2022-07-29T08:00:26.581Z,1.83
2022-07-29T08:02:54.591Z,1.35
2022-07-29T08:05:22.643Z,1.65
2022-07-29T08:07:50.834Z,1.70
2022-07-29T08:10:40.991Z,2.08
2022-07-29T08:13:10.153Z,1.65
2022-07-29T08:15:41.699Z,1.52
2022-07-29T08:18:09.814Z,1.52
2022-07-29T08:20:39.389Z,1.60
2022-07-29T08:23:10.479Z,1.83
2022-07-29T08:25:40.236Z,1.83
2022-07-29T08:28:08.441Z,2.03
2022-07-29T08:30:36.400Z,1.80
2022-07-29T08:33:05.745Z,2.05
2022-07-29T08:35:35.545Z,2.10
2022-07-29T08:38:05.558Z,2.13
2022-07-29T08:40:33.582Z,2.00
2022-07-29T08:43:06.583Z,1.90
2022-07-29T08:45:48.228Z,2.10
2022-07-29T08:48:22.786Z,1.98
2022-07-29T08:50:54.707Z,2.13
2022-07-29T08:53:28.263Z,2.50
2022-07-29T08:55:57.437Z,2.08
2022-07-29T08:58:26.635Z,2.47
2022-07-29T09:00:57.946Z,2.92
2022-07-29T09:03:32.601Z,2.65
2022-07-29T09:06:01.035Z,2.45
2022-07-29T09:08:29.793Z,2.85
2022-07-29T09:10:58.286Z,2.50
2022-07-29T09:13:27.123Z,2.53
2022-07-29T09:15:55.278Z,2.15
2022-07-29T09:18:41.410Z,2.28
2022-07-29T09:21:28.589Z,2.33
2022-07-29T09:24:08.678Z,2.50
2022-07-29T09:26:38.465Z,2.42
2022-07-29T09:29:13.755Z,2.17
2022-07-29T09:31:45.012Z,2.78
2022-07-29T09:34:16.971Z,3.35
2022-07-29T09:36:47.932Z,3.00
2022-07-29T09:39:17.806Z,2.55
2022-07-29T09:41:50.911Z,2.83
2022-07-29T09:44:19.365Z,3.17
2022-07-29T09:47:07.075Z,2.92
2022-07-29T09:49:38.289Z,2.80
2022-07-29T09:52:09.921Z,2.47
2022-07-29T09:54:41.547Z,2.63
2022-07-29T09:57:13.504Z,2.22
2022-07-29T09:59:50.536Z,2.53
2022-07-29T10:02:23.795Z,2.45
2022-07-29T10:04:53.749Z,1.90
2022-07-29T10:07:21.831Z,2.75
2022-07-29T10:09:55.433Z,2.22
2022-07-29T10:12:24.519Z,2.17
2022-07-29T10:14:53.246Z,2.38
2022-07-29T10:17:22.922Z,2.40
2022-07-29T10:19:51.653Z,2.25
2022-07-29T10:22:43.565Z,2.70
2022-07-29T10:25:11.402Z,2.97
2022-07-29T10:27:40.171Z,2.55
2022-07-29T10:30:09.585Z,2.25
2022-07-29T10:32:54.260Z,2.47
2022-07-29T10:35:39.410Z,2.30
2022-07-29T10:38:29.945Z,2.53
2022-07-29T10:41:32.436Z,2.45
2022-07-29T10:44:19.122Z,2.25
2022-07-29T10:46:48.350Z,2.63
2022-07-29T10:49:18.301Z,2.08
2022-07-29T10:51:58.150Z,2.28
2022-07-29T10:54:54.874Z,2.83
2022-07-29T10:57:54.127Z,2.40
2022-07-29T11:00:33.918Z,1.90
2022-07-29T11:03:04.844Z,2.35
2022-07-29T11:05:59.800Z,2.70
2022-07-29T11:08:28.973Z,2.83
2022-07-29T11:11:37.707Z,2.15
2022-07-29T11:14:10.199Z,2.10
2022-07-29T11:19:52.832Z,2.80
2022-07-29T11:22:34.971Z,2.70
2022-07-29T11:28:19.564Z,3.05
2022-07-29T11:30:56.246Z,3.40
2022-07-29T11:33:54.470Z,2.90
2022-07-29T11:36:28.054Z,3.00
2022-07-29T11:39:36.232Z,2.60
2022-07-29T11:42:41.968Z,2.50
2022-07-29T11:45:41.397Z,2.17
2022-07-29T11:48:28.912Z,2.20
2022-07-29T11:50:55.569Z,2.55
2022-07-29T11:53:28.951Z,2.22
2022-07-29T11:56:02.784Z,2.35
2022-07-29T11:58:32.549Z,1.63
2022-07-29T12:01:04.731Z,2.10
2022-07-29T12:03:36.957Z,2.70
2022-07-29T12:06:17.588Z,2.13
2022-07-29T12:08:47.343Z,2.47
2022-07-29T12:11:20.900Z,1.90
2022-07-29T12:13:50.016Z,2.40
2022-07-29T12:16:25.911Z,1.80
2022-07-29T12:19:00.163Z,2.37
2022-07-29T12:21:28.712Z,2.03
2022-07-29T12:24:02.085Z,1.98
2022-07-29T12:26:35.723Z,2.10
2022-07-29T12:29:04.502Z,2.50
2022-07-29T12:31:42.711Z,1.90
2022-07-29T12:34:16.079Z,1.95
2022-07-29T12:36:44.952Z,1.98
2022-07-29T12:39:13.679Z,2.55
2022-07-29T12:41:41.593Z,2.50
2022-07-29T12:44:09.760Z,1.90
2022-07-29T12:46:37.912Z,2.17
2022-07-29T12:49:07.918Z,2.15
2022-07-29T12:51:38.826Z,2.30
2022-07-29T12:54:12.264Z,2.35
2022-07-29T12:56:43.708Z,2.47
2022-07-29T12:59:17.976Z,2.17
2022-07-29T13:01:48.001Z,2.30
2022-07-29T13:04:27.540Z,2.20
2022-07-29T13:07:04.901Z,2.35
2022-07-29T13:09:40.476Z,2.00
2022-07-29T13:12:11.150Z,2.08
2022-07-29T13:14:40.640Z,2.35
2022-07-29T13:17:10.293Z,2.28
2022-07-29T13:19:41.364Z,2.00
2022-07-29T13:22:13.466Z,2.10
2022-07-29T13:24:51.961Z,1.70
2022-07-29T13:27:21.203Z,2.08
2022-07-29T13:29:49.770Z,1.80
2022-07-29T13:32:17.843Z,1.80
2022-07-29T13:34:46.982Z,1.83
2022-07-29T13:37:17.855Z,2.05
2022-07-29T13:39:53.169Z,1.80
2022-07-29T13:42:21.509Z,2.25
2022-07-29T13:44:49.731Z,2.10
2022-07-29T13:47:18.071Z,1.92
2022-07-29T13:49:46.026Z,1.70
2022-07-29T13:52:15.137Z,1.90
2022-07-29T13:54:44.624Z,2.00
2022-07-29T13:57:12.778Z,2.00
2022-07-29T13:59:41.331Z,2.00
2022-07-29T14:02:09.540Z,2.10
2022-07-29T14:04:39.465Z,1.90
2022-07-29T14:07:07.829Z,1.92
2022-07-29T14:09:41.118Z,1.67
2022-07-29T14:12:11.642Z,2.05
2022-07-29T14:14:39.700Z,2.30
2022-07-29T14:17:08.375Z,1.65
2022-07-29T14:19:38.842Z,1.88
2022-07-29T14:22:08.565Z,1.90
2022-07-29T14:24:37.485Z,2.10
2022-07-29T14:27:06.205Z,1.92
2022-07-29T14:29:38.257Z,1.92
2022-07-29T14:32:07.430Z,2.08
2022-07-29T14:34:35.653Z,2.05
2022-07-29T14:37:03.961Z,1.90
2022-07-29T14:39:32.185Z,1.90
2022-07-29T14:42:00.905Z,1.67
2022-07-29T14:44:32.324Z,1.90
2022-07-29T14:47:07.638Z,1.92
2022-07-29T14:49:36.608Z,1.60
2022-07-29T14:52:04.957Z,1.92
2022-07-29T14:54:32.842Z,1.95
2022-07-29T14:57:01.252Z,1.80
2022-07-29T14:59:29.399Z,1.77
2022-07-29T15:01:57.569Z,1.85
2022-07-29T15:04:27.136Z,2.00
2022-07-29T15:06:55.065Z,2.28
2022-07-29T15:09:24.177Z,1.63
2022-07-29T15:11:52.032Z,1.65
2022-07-29T15:14:20.125Z,1.70
2022-07-29T15:16:48.370Z,1.80
2022-07-29T15:19:16.492Z,1.63
2022-07-29T15:21:48.582Z,1.60
2022-07-29T15:24:17.430Z,2.03
2022-07-29T15:26:46.024Z,2.10
2022-07-29T15:29:14.452Z,1.88
2022-07-29T15:31:42.716Z,2.10
2022-07-29T15:34:10.785Z,2.00
2022-07-29T15:36:54.302Z,2.47
2022-07-29T15:39:24.219Z,2.20
2022-07-29T15:41:52.775Z,2.53
2022-07-29T15:44:21.269Z,2.55
2022-07-29T15:47:05.134Z,2.38
2022-07-29T15:49:47.243Z,1.98
2022-07-29T15:52:19.050Z,2.22
2022-07-29T15:54:55.852Z,3.00
2022-07-29T15:57:24.529Z,2.10
2022-07-29T15:59:52.566Z,2.10
2022-07-29T16:02:20.692Z,2.42
2022-07-29T16:04:48.708Z,2.88
2022-07-29T16:07:17.020Z,2.30
2022-07-29T16:09:49.382Z,2.63
2022-07-29T16:12:21.970Z,2.15
2022-07-29T16:14:51.212Z,2.60
2022-07-29T16:17:20.182Z,2.17
2022-07-29T16:19:48.378Z,2.22
2022-07-29T16:22:16.588Z,3.30
2022-07-29T16:24:44.580Z,2.17
2022-07-29T16:27:12.523Z,2.50
2022-07-29T16:29:41.848Z,2.65
2022-07-29T16:32:09.803Z,2.58
2022-07-29T16:34:37.697Z,2.05
2022-07-29T16:37:05.876Z,2.63
2022-07-29T16:39:34.133Z,2.72
2022-07-29T16:42:05.021Z,3.22
2022-07-29T16:44:33.670Z,2.63
2022-07-29T16:47:04.302Z,2.40
2022-07-29T16:49:32.232Z,2.55
2022-07-29T16:52:00.098Z,2.65
2022-07-29T16:54:28.937Z,2.70
2022-07-29T16:56:57.307Z,2.33
2022-07-29T16:59:25.450Z,2.42
2022-07-29T17:01:53.425Z,2.28
2022-07-29T17:04:22.948Z,2.15
2022-07-29T17:06:50.992Z,2.45
2022-07-29T17:09:18.917Z,2.42
2022-07-29T17:11:53.111Z,2.33
2022-07-29T17:14:24.050Z,2.30
2022-07-29T17:17:00.177Z,2.50
2022-07-29T17:19:32.170Z,2.47
2022-07-29T17:22:13.066Z,2.20
2022-07-29T17:24:44.021Z,2.17
2022-07-29T17:27:11.964Z,2.17
2022-07-29T17:29:40.159Z,2.58
2022-07-29T17:32:09.092Z,2.70
2022-07-29T17:34:39.030Z,2.22
2022-07-29T17:37:07.926Z,2.20
2022-07-29T17:39:36.168Z,1.77
2022-07-29T17:42:05.074Z,2.20
2022-07-29T17:44:36.292Z,2.20
2022-07-29T17:47:04.847Z,2.08
2022-07-29T17:49:32.823Z,2.15
2022-07-29T17:52:05.896Z,1.88
2022-07-29T17:54:33.817Z,1.70
2022-07-29T17:57:02.128Z,2.25
2022-07-29T17:59:30.187Z,2.10
2022-07-29T18:01:58.117Z,1.95
2022-07-29T18:04:26.067Z,2.20
2022-07-29T18:06:53.965Z,2.00
2022-07-29T18:09:23.267Z,2.45
2022-07-29T18:11:52.726Z,2.30
2022-07-29T18:14:20.651Z,2.25
2022-07-29T18:16:48.606Z,1.92
2022-07-29T18:19:17.036Z,2.30
2022-07-29T18:21:51.829Z,2.00
2022-07-29T18:24:25.599Z,2.20
2022-07-29T18:26:53.833Z,2.17
2022-07-29T18:29:22.278Z,2.20
2022-07-29T18:31:50.321Z,2.17
2022-07-29T18:34:18.282Z,2.08
2022-07-29T18:36:46.793Z,2.13
2022-07-29T18:39:20.246Z,2.00
2022-07-29T18:41:51.392Z,2.50
2022-07-29T18:44:22.635Z,2.15
2022-07-29T18:46:52.116Z,1.85
2022-07-29T18:49:20.569Z,2.25
2022-07-29T18:51:49.155Z,2.45
2022-07-29T18:54:18.377Z,2.35
2022-07-29T18:56:47.144Z,1.92
2022-07-29T18:59:19.743Z,2.03
2022-07-29T19:01:48.581Z,2.17
2022-07-29T19:04:17.121Z,2.15
2022-07-29T19:06:45.129Z,2.05
2022-07-29T19:09:13.079Z,2.13
2022-07-29T19:11:41.693Z,2.20
2022-07-29T19:14:09.615Z,2.08
2022-07-29T19:16:38.863Z,2.30
2022-07-29T19:19:08.607Z,2.10
2022-07-29T19:21:36.491Z,2.15
2022-07-29T19:24:07.757Z,2.20
2022-07-29T19:26:39.319Z,2.08
2022-07-29T19:29:07.318Z,2.00
2022-07-29T19:31:35.276Z,2.17
2022-07-29T19:34:04.648Z,2.70
2022-07-29T19:36:32.524Z,2.00
2022-07-29T19:39:00.661Z,2.63
2022-07-29T19:41:28.684Z,2.15
2022-07-29T19:43:56.611Z,2.30
2022-07-29T19:46:25.551Z,2.17
2022-07-29T19:48:54.080Z,2.20
2022-07-29T19:51:23.934Z,2.05
2022-07-29T19:53:52.446Z,2.30
2022-07-29T19:56:20.290Z,2.50
2022-07-29T19:58:48.401Z,2.60
2022-07-29T20:01:16.703Z,2.42
2022-07-29T20:03:44.808Z,2.67
2022-07-29T20:06:12.707Z,2.40
2022-07-29T20:08:42.060Z,2.60
2022-07-29T20:11:09.889Z,2.33
2022-07-29T20:13:37.878Z,2.97
2022-07-29T20:16:08.254Z,2.20
2022-07-29T20:18:36.241Z,2.20
2022-07-29T20:21:04.897Z,2.47
2022-07-29T20:23:33.431Z,2.80
2022-07-29T20:26:06.103Z,2.53
2022-07-29T20:28:37.174Z,2.50
2022-07-29T20:31:05.101Z,2.88
2022-07-29T20:33:33.092Z,3.08
2022-07-29T20:36:00.924Z,3.05
2022-07-29T20:38:30.627Z,3.20
2022-07-29T20:40:58.808Z,3.38
2022-07-29T20:43:28.173Z,3.53
2022-07-29T20:45:56.143Z,3.08
2022-07-29T20:48:24.155Z,2.78
2022-07-29T20:50:52.952Z,3.58
2022-07-29T20:53:20.997Z,3.30
2022-07-29T20:55:48.956Z,3.40
2022-07-29T20:58:17.287Z,3.13
2022-07-29T21:00:46.666Z,3.50
2022-07-29T21:03:14.702Z,3.63
2022-07-29T21:05:44.030Z,3.45
2022-07-29T21:08:12.425Z,3.60
2022-07-29T21:10:40.328Z,3.33
2022-07-29T21:13:08.153Z,3.30
2022-07-29T21:15:36.389Z,3.72
2022-07-29T21:18:16.060Z,3.30
2022-07-29T21:20:43.959Z,3.25
2022-07-29T21:23:11.757Z,3.00
2022-07-29T21:25:39.619Z,3.47
2022-07-29T21:28:24.584Z,3.05
2022-07-29T21:30:52.503Z,3.20
2022-07-29T21:33:21.894Z,3.45
2022-07-29T21:38:38.867Z,3.30
2022-07-29T21:41:07.257Z,3.40
2022-07-29T21:43:35.175Z,3.35
2022-07-29T21:46:03.040Z,3.55
2022-07-29T21:48:32.300Z,3.07
2022-07-29T21:51:00.362Z,3.67
2022-07-29T21:53:28.200Z,3.23
2022-07-29T21:55:56.057Z,3.92
2022-07-29T21:58:24.870Z,3.80
2022-07-29T22:00:53.960Z,3.63
2022-07-29T22:03:21.992Z,3.90
2022-07-29T22:05:51.221Z,3.70
2022-07-29T22:08:21.095Z,4.28
2022-07-29T22:10:48.903Z,3.35
2022-07-29T22:13:16.771Z,3.78
2022-07-29T22:15:47.169Z,3.83
2022-07-29T22:18:19.489Z,3.60
2022-07-29T22:20:49.317Z,3.28
2022-07-29T22:23:18.635Z,3.40
2022-07-29T22:25:46.539Z,3.20
2022-07-29T22:28:14.446Z,3.45
2022-07-29T22:30:42.441Z,3.13
2022-07-29T22:33:17.982Z,3.45
2022-07-29T22:35:48.958Z,3.17
2022-07-29T22:38:18.838Z,2.85
2022-07-29T22:40:46.972Z,3.65
2022-07-29T22:43:16.941Z,3.40
2022-07-29T22:45:44.854Z,3.55
2022-07-29T22:48:12.895Z,3.40
2022-07-29T22:50:42.025Z,3.50
2022-07-29T22:53:09.903Z,3.60
2022-07-29T22:55:39.117Z,3.03
2022-07-29T22:58:07.065Z,3.15
2022-07-29T23:00:35.032Z,4.00
2022-07-29T23:03:02.847Z,4.28
2022-07-29T23:05:30.808Z,4.13
2022-07-29T23:07:58.646Z,3.85
2022-07-29T23:10:26.653Z,3.40
2022-07-29T23:12:55.953Z,3.85
2022-07-29T23:15:24.094Z,3.63
2022-07-29T23:17:51.953Z,4.32
2022-07-29T23:20:19.840Z,4.22
2022-07-29T23:22:47.651Z,3.65
2022-07-29T23:25:15.636Z,3.50
2022-07-29T23:27:43.483Z,3.58
2022-07-29T23:30:13.573Z,3.80
2022-07-29T23:32:41.439Z,3.80
2022-07-29T23:35:10.791Z,4.13
2022-07-29T23:37:39.173Z,4.03
2022-07-29T23:40:13.632Z,3.95
2022-07-29T23:42:42.909Z,3.85
2022-07-29T23:45:13.382Z,4.32
2022-07-29T23:47:41.449Z,4.43
2022-07-29T23:50:12.483Z,4.13
2022-07-29T23:52:41.965Z,3.92
2022-07-29T23:55:37.704Z,3.40
2022-07-29T23:57:59.182Z,4.47
